Time;durP1;ratioP1;P1;durP2;ratioP2;P2;SDS_P1;SDS_P2;PMS_P1;PMS_P2;Temp;Humidity;BMP_temperature;BMP_pressure;BME280_temperature;BME280_humidity;BME280_pressure;Samples;Min_cycle;Max_cycle;Signal;HPM_P1;HPM_P2
2023/05/27 00:00:22;;;;;;;4.53;3.80;;;;;;;18.01;100.00;102207.09;5071952;28;20102;-69
2023/05/27 00:02:47;;;;;;;4.60;3.58;;;;;;;17.64;100.00;102150.47;5053105;28;20473;-69
2023/05/27 00:05:13;;;;;;;5.85;3.97;;;;;;;18.05;100.00;102208.72;5071991;28;20034;-69
2023/05/27 00:07:38;;;;;;;4.00;3.60;;;;;;;17.88;100.00;102192.81;5071326;28;20028;-69
2023/05/27 00:10:05;;;;;;;4.20;3.80;;;;;;;17.57;100.00;102164.31;5071364;28;20074;-70
2023/05/27 00:12:30;;;;;;;4.75;3.97;;;;;;;17.81;100.00;102202.41;5071766;28;20032;-68
2023/05/27 00:14:56;;;;;;;4.07;3.65;;;;;;;17.58;100.00;102171.19;5071464;28;20427;-68
2023/05/27 00:17:21;;;;;;;5.05;4.30;;;;;;;17.77;100.00;102193.06;5053610;28;20028;-69
2023/05/27 00:19:47;;;;;;;6.78;4.10;;;;;;;17.40;100.00;102129.53;5071970;28;20036;-68
2023/05/27 00:22:13;;;;;;;5.65;4.43;;;;;;;17.61;100.00;102165.97;5071345;28;20064;-68
2023/05/27 00:24:41;;;;;;;5.07;4.00;;;;;;;17.65;100.00;102166.75;5071050;28;20074;-68
2023/05/27 00:27:06;;;;;;;5.32;4.45;;;;;;;17.20;100.00;102114.53;5053545;28;20032;-69
2023/05/27 00:29:32;;;;;;;4.60;4.15;;;;;;;17.22;100.00;102146.19;5053159;28;20104;-72
2023/05/27 00:31:57;;;;;;;5.85;3.90;;;;;;;17.15;100.00;102114.59;5053340;28;20107;-69
2023/05/27 00:34:23;;;;;;;4.55;3.60;;;;;;;17.62;100.00;102166.81;5052768;28;20039;-68
2023/05/27 00:36:48;;;;;;;4.95;4.45;;;;;;;17.51;100.00;102154.16;5070741;28;20115;-68
2023/05/27 00:39:13;;;;;;;4.57;4.00;;;;;;;17.55;100.00;102163.50;5070468;28;20051;-68
2023/05/27 00:41:47;;;;;;;5.05;4.03;;;;;;;17.53;100.00;102167.03;5070508;28;20400;-68
2023/05/27 00:44:13;;;;;;;4.78;3.80;;;;;;;17.42;100.00;102133.78;5071216;28;20025;-68
2023/05/27 00:46:38;;;;;;;4.88;4.18;;;;;;;17.49;100.00;102137.94;5070364;28;20051;-69
2023/05/27 00:49:04;;;;;;;7.05;3.90;;;;;;;17.25;100.00;102110.16;5071346;28;20031;-69
2023/05/27 00:51:29;;;;;;;5.35;3.80;;;;;;;17.47;100.00;102126.78;5053170;28;20036;-68
2023/05/27 00:53:55;;;;;;;5.13;3.83;;;;;;;17.30;100.00;102083.44;5070976;28;20475;-68
2023/05/27 00:56:21;;;;;;;5.43;4.55;;;;;;;17.39;100.00;102113.25;5052438;28;20028;-69
2023/05/27 00:58:47;;;;;;;4.97;4.30;;;;;;;17.44;100.00;102108.00;5070747;28;20063;-69
2023/05/27 01:01:12;;;;;;;7.63;4.60;;;;;;;17.65;100.00;102151.31;5070717;28;20078;-69
2023/05/27 01:03:41;;;;;;;4.63;4.22;;;;;;;17.54;100.00;102130.13;5070782;28;20394;-68
2023/05/27 01:06:28;;;;;;;5.53;4.30;;;;;;;17.69;100.00;102140.91;5070765;28;20457;-69
2023/05/27 01:09:09;;;;;;;5.22;4.35;;;;;;;17.58;100.00;102130.03;5070431;28;20483;-69
2023/05/27 01:11:41;;;;;;;5.18;4.68;;;;;;;17.50;100.00;102110.47;5070976;28;20047;-69
2023/05/27 01:14:10;;;;;;;5.95;4.60;;;;;;;17.51;100.00;102137.91;5070328;28;20032;-69
2023/05/27 01:16:43;;;;;;;5.13;4.45;;;;;;;17.71;100.00;102161.44;5070499;28;20032;-70
2023/05/27 01:19:14;;;;;;;5.22;4.43;;;;;;;17.52;100.00;102131.88;5070327;28;20051;-69
2023/05/27 01:21:44;;;;;;;5.50;5.00;;;;;;;17.74;100.00;102136.53;5070418;28;20025;-69
2023/05/27 01:24:10;;;;;;;5.20;4.68;;;;;;;17.44;100.00;102098.56;5070706;28;20028;-69
2023/05/27 01:26:36;;;;;;;5.20;4.70;;;;;;;17.75;100.00;102145.06;5052526;28;20086;-69
2023/05/27 01:29:03;;;;;;;5.30;4.50;;;;;;;17.94;100.00;102169.53;5070215;28;20032;-69
2023/05/27 01:31:41;;;;;;;6.15;5.25;;;;;;;17.79;100.00;102156.97;5070242;28;20112;-69
2023/05/27 01:34:13;;;;;;;7.28;4.90;;;;;;;17.50;100.00;102139.63;5052188;28;20609;-69
2023/05/27 01:36:55;;;;;;;5.85;5.20;;;;;;;17.55;100.00;102109.50;5067347;28;20028;-69
2023/05/27 01:39:22;;;;;;;;;;;;;;;17.47;100.00;102136.25;5070602;28;20055;-69
2023/05/27 01:41:49;;;;;;;9.88;5.10;;;;;;;17.63;100.00;102147.94;5069594;28;19912;-70
2023/05/27 01:44:17;;;;;;;6.57;5.25;;;;;;;17.47;100.00;102151.69;5070125;28;20486;-69
2023/05/27 01:46:42;;;;;;;7.75;5.50;;;;;;;16.94;100.00;102065.38;5070225;28;20039;-69
2023/05/27 01:49:08;;;;;;;6.43;5.68;;;;;;;17.20;100.00;102128.25;5052152;28;20024;-69
2023/05/27 01:51:33;;;;;;;7.30;6.13;;;;;;;17.05;100.00;102114.84;5051986;28;20031;-69
2023/05/27 01:53:59;;;;;;;7.60;5.72;;;;;;;16.74;100.00;102046.97;5072994;28;20055;-69
2023/05/27 01:56:24;;;;;;;7.32;5.70;;;;;;;16.75;100.00;102070.06;5055832;28;20444;-70
2023/05/27 01:58:49;;;;;;;8.10;5.63;;;;;;;16.64;100.00;102038.56;5074444;28;20407;-69
2023/05/27 02:01:15;;;;;;;6.78;6.00;;;;;;;16.66;100.00;102080.50;5073691;28;20052;-69
2023/05/27 02:03:40;;;;;;;6.90;5.80;;;;;;;17.03;100.00;102135.44;5074085;28;20047;-69
2023/05/27 02:06:06;;;;;;;9.65;6.00;;;;;;;17.24;100.00;102131.59;5074228;28;20029;-69
2023/05/27 02:08:33;;;;;;;7.78;6.00;;;;;;;17.06;100.00;102101.09;5074363;28;20040;-69
2023/05/27 02:10:59;;;;;;;7.07;6.07;;;;;;;17.52;100.00;102140.44;5073531;28;20515;-71
2023/05/27 02:13:24;;;;;;;8.32;6.40;;;;;;;17.23;100.00;102092.16;5055612;28;20131;-69
2023/05/27 02:15:50;;;;;;;7.00;6.30;;;;;;;17.21;100.00;102087.94;5074092;28;20115;-68
2023/05/27 02:18:15;;;;;;;6.60;6.00;;;;;;;17.34;100.00;102128.78;5074058;28;20510;-68
2023/05/27 02:20:41;;;;;;;7.20;6.38;;;;;;;17.17;100.00;102088.91;5073654;28;20028;-69
2023/05/27 02:23:07;;;;;;;7.20;5.90;;;;;;;17.19;100.00;102095.66;5073791;28;20047;-68
2023/05/27 02:25:33;;;;;;;8.13;6.28;;;;;;;17.20;100.00;102087.09;5073614;28;20078;-69
2023/05/27 02:28:02;;;;;;;6.53;5.85;;;;;;;17.07;100.00;102090.78;5073596;28;20130;-69
2023/05/27 02:30:29;;;;;;;6.93;6.22;;;;;;;17.25;100.00;102130.72;5073505;28;20044;-68
2023/05/27 02:32:55;;;;;;;6.70;6.00;;;;;;;17.38;100.00;102121.84;5073762;28;20033;-69
2023/05/27 02:35:21;;;;;;;7.28;6.55;;;;;;;16.83;100.00;102080.16;5073539;28;20125;-69
2023/05/27 02:37:46;;;;;;;6.72;6.13;;;;;;;17.02;100.00;102120.03;5073020;28;20040;-69
2023/05/27 02:40:12;;;;;;;7.38;6.45;;;;;;;16.93;100.00;102077.41;5054560;28;20032;-69
2023/05/27 02:42:37;;;;;;;7.28;6.50;;;;;;;17.20;100.00;102112.81;5073081;28;20056;-68
2023/05/27 02:45:03;;;;;;;9.30;6.90;;;;;;;16.82;100.00;102065.63;5072644;28;20065;-69
2023/05/27 02:47:29;;;;;;;7.43;6.63;;;;;;;17.08;100.00;102074.50;5072053;28;20490;-68
2023/05/27 02:49:54;;;;;;;9.38;6.68;;;;;;;17.20;100.00;102093.97;5073258;28;20044;-69
2023/05/27 02:52:20;;;;;;;8.52;7.60;;;;;;;16.83;100.00;102046.75;5073321;28;20040;-68
2023/05/27 02:54:45;;;;;;;7.93;6.70;;;;;;;17.12;100.00;102072.69;5072739;28;20085;-69
2023/05/27 02:57:11;;;;;;;9.10;6.80;;;;;;;17.45;100.00;102107.97;5073056;28;20700;-68
2023/05/27 02:59:36;;;;;;;9.50;6.05;;;;;;;17.25;100.00;102079.28;5073212;28;20029;-69
2023/05/27 03:02:01;;;;;;;8.45;6.10;;;;;;;17.40;100.00;102078.09;5073429;28;20031;-68
2023/05/27 03:04:28;;;;;;;10.00;6.22;;;;;;;17.65;100.00;102110.16;5068137;28;20029;-70
2023/05/27 03:06:54;;;;;;;6.95;5.95;;;;;;;17.22;100.00;102054.50;5050763;28;20028;-72
2023/05/27 03:09:20;;;;;;;7.60;5.60;;;;;;;17.27;100.00;102051.81;5054210;28;20074;-72
2023/05/27 03:11:45;;;;;;;6.35;5.45;;;;;;;17.56;100.00;102094.91;5073320;28;20044;-74
2023/05/27 03:14:10;;;;;;;6.57;5.50;;;;;;;17.41;100.00;102072.09;5054827;28;20032;-72
2023/05/27 03:16:36;;;;;;;6.30;5.50;;;;;;;17.78;100.00;102096.13;5073766;28;20123;-73
2023/05/27 03:19:02;;;;;;;8.32;5.80;;;;;;;17.90;100.00;102083.81;5066864;28;20109;-73
2023/05/27 03:21:27;;;;;;;7.65;5.93;;;;;;;18.36;100.00;102132.41;5055927;28;20029;-71
2023/05/27 03:23:53;;;;;;;6.03;4.97;;;;;;;17.70;100.00;102064.56;5033887;28;20059;-72
2023/05/27 03:26:18;;;;;;;5.63;4.70;;;;;;;17.32;100.00;102050.84;5034463;28;20094;-72
2023/05/27 03:28:44;;;;;;;6.97;4.75;;;;;;;17.59;100.00;102058.84;5035348;28;20120;-72
2023/05/27 03:31:12;;;;;;;6.47;4.95;;;;;;;17.75;100.00;102083.31;5052976;28;20086;-73
2023/05/27 03:33:38;;;;;;;6.38;4.60;;;;;;;17.86;100.00;102104.50;5053186;28;20454;-72
2023/05/27 03:36:03;;;;;;;5.40;4.57;;;;;;;17.80;100.00;102084.91;5053203;28;20031;-73
2023/05/27 03:38:29;;;;;;;6.88;4.88;;;;;;;17.73;100.00;102103.06;5051943;28;20033;-73
2023/05/27 03:40:54;;;;;;;5.97;5.18;;;;;;;17.85;100.00;102113.94;5052448;28;20041;-73
2023/05/27 03:43:20;;;;;;;5.85;5.25;;;;;;;17.69;100.00;102086.88;5052194;28;20037;-72
2023/05/27 03:45:45;;;;;;;5.85;4.82;;;;;;;17.48;100.00;102037.63;5052720;28;20496;-73
2023/05/27 03:48:10;;;;;;;7.88;5.10;;;;;;;17.66;100.00;102081.81;5033752;28;20025;-73
2023/05/27 03:50:36;;;;;;;5.75;5.25;;;;;;;18.09;100.00;102133.09;5052293;28;20029;-72
2023/05/27 03:53:01;;;;;;;7.32;5.47;;;;;;;18.12;100.00;102145.91;5034441;28;20147;-72
2023/05/27 03:55:28;;;;;;;9.15;5.22;;;;;;;17.72;100.00;102085.97;5052295;28;20033;-72
2023/05/27 03:57:53;;;;;;;7.40;5.53;;;;;;;17.60;100.00;102124.84;5051136;28;20056;-72
2023/05/27 04:00:19;;;;;;;6.65;5.22;;;;;;;17.98;100.00;102132.53;5052271;28;20480;-72
2023/05/27 04:02:44;;;;;;;5.45;4.95;;;;;;;17.84;100.00;102112.25;5052832;28;20112;-72
2023/05/27 04:05:10;;;;;;;8.32;5.35;;;;;;;17.76;100.00;102108.16;5052881;28;20028;-72
2023/05/27 04:07:36;;;;;;;5.88;4.85;;;;;;;17.69;100.00;102098.91;5052663;28;20033;-73
2023/05/27 04:10:01;;;;;;;5.03;4.53;;;;;;;17.93;100.00;102109.47;5052213;28;20048;-73
2023/05/27 04:12:26;;;;;;;5.95;5.18;;;;;;;18.31;100.00;102167.75;5052161;28;20099;-73
2023/05/27 04:14:52;;;;;;;6.15;5.07;;;;;;;17.96;100.00;102111.97;5052068;28;20476;-73
2023/05/27 04:17:18;;;;;;;6.80;4.97;;;;;;;18.19;100.00;102130.28;5033898;28;20036;-72
2023/05/27 04:19:44;;;;;;;7.57;5.40;;;;;;;18.33;100.00;102111.91;5052319;28;20033;-73
2023/05/27 04:22:10;;;;;;;6.63;4.72;;;;;;;18.44;100.00;102182.03;5034592;28;20056;-73
2023/05/27 04:24:35;;;;;;;5.75;5.25;;;;;;;18.15;100.00;102107.22;5051871;28;20130;-72
2023/05/27 04:27:04;;;;;;;6.78;4.88;;;;;;;18.39;100.00;102183.00;5051934;28;20029;-73
2023/05/27 04:29:31;;;;;;;5.72;4.32;;;;;;;18.37;100.00;102159.88;5034377;28;20050;-73
2023/05/27 04:31:57;;;;;;;6.13;4.70;;;;;;;18.51;100.00;102162.13;5052306;28;20036;-73
2023/05/27 04:34:22;;;;;;;6.35;4.60;;;;;;;18.60;100.00;102185.09;5051758;28;20036;-72
2023/05/27 04:36:49;;;;;;;6.82;4.60;;;;;;;18.63;100.00;102183.28;5034393;28;20067;-72
2023/05/27 04:39:15;;;;;;;7.22;4.82;;;;;;;18.27;100.00;102145.53;5051673;28;20060;-72
2023/05/27 04:41:48;;;;;;;5.63;4.40;;;;;;;18.26;100.00;102124.97;5052141;28;20043;-72
2023/05/27 04:44:13;;;;;;;6.10;4.82;;;;;;;18.44;100.00;102151.13;5051879;28;20099;-72
2023/05/27 04:46:39;;;;;;;7.30;4.22;;;;;;;18.43;100.00;102152.03;5051859;28;20017;-73
2023/05/27 04:49:05;;;;;;;5.13;3.78;;;;;;;18.59;100.00;102181.69;5051770;28;20029;-74
2023/05/27 04:51:30;;;;;;;4.35;3.65;;;;;;;18.60;100.00;102167.06;5051776;28;20033;-74
2023/05/27 04:53:56;;;;;;;4.47;3.97;;;;;;;18.84;100.00;102193.03;5051301;28;20039;-72
2023/05/27 04:56:21;;;;;;;4.32;3.35;;;;;;;18.32;100.00;102119.66;5033866;28;20095;-74
2023/05/27 04:58:48;;;;;;;4.57;3.65;;;;;;;19.06;100.00;102172.66;5051206;28;20033;-71
2023/05/27 05:01:20;;;;;;;4.95;3.30;;;;;;;18.86;100.00;102170.63;5051557;28;20033;-73
2023/05/27 05:04:02;;;;;;;5.78;3.75;;;;;;;18.95;100.00;102215.97;5042610;28;20115;-75
2023/05/27 05:06:27;;;;;;;3.60;3.30;;;;;;;18.50;100.00;102129.53;5053174;28;20059;-74
2023/05/27 05:08:53;;;;;;;5.53;3.67;;;;;;;19.08;100.00;102198.41;5053861;28;20123;-75
2023/05/27 05:11:18;;;;;;;4.22;3.83;;;;;;;18.98;100.00;102175.47;5071186;28;20117;-74
2023/05/27 05:13:44;;;;;;;6.60;4.00;;;;;;;18.80;100.00;102139.00;5071360;28;20032;-75
2023/05/27 05:16:09;;;;;;;6.18;4.60;;;;;;;18.91;100.00;102170.53;5071268;28;20035;-74
2023/05/27 05:18:35;;;;;;;5.20;3.83;;;;;;;19.09;100.00;102187.22;5053830;28;20028;-75
2023/05/27 05:21:00;;;;;;;8.23;3.92;;;;;;;18.94;100.00;102191.91;5071382;28;20120;-76
2023/05/27 05:23:25;;;;;;;5.25;3.88;;;;;;;19.04;100.00;102190.78;5071203;28;20123;-73
2023/05/27 05:25:57;;;;;;;6.68;4.15;;;;;;;19.08;100.00;102201.00;5071748;28;20028;-75
2023/05/27 05:28:23;;;;;;;6.35;4.00;;;;;;;19.21;100.00;102197.19;5071325;28;20074;-73
2023/05/27 05:30:48;;;;;;;6.13;4.00;;;;;;;18.92;100.00;102144.69;5071431;28;20020;-74
2023/05/27 05:33:16;;;;;;;5.72;4.05;;;;;;;19.09;100.00;102189.81;5071034;28;20480;-74
2023/05/27 05:35:42;;;;;;;5.15;3.92;;;;;;;18.86;100.00;102131.09;5071253;28;20025;-74
2023/05/27 05:38:07;;;;;;;6.13;4.40;;;;;;;19.02;100.00;102171.91;5071424;28;20031;-75
2023/05/27 05:40:33;;;;;;;5.72;3.97;;;;;;;18.82;100.00;102135.50;5052963;28;20040;-74
2023/05/27 05:42:58;;;;;;;4.72;4.13;;;;;;;19.23;100.00;102192.84;5071064;28;20507;-75
2023/05/27 05:45:25;;;;;;;5.63;3.83;;;;;;;19.08;100.00;102164.88;5070979;28;20031;-74
2023/05/27 05:47:50;;;;;;;6.20;4.47;;;;;;;19.40;100.00;102203.56;5070683;28;20024;-77
2023/05/27 05:50:16;;;;;;;7.95;4.60;;;;;;;19.21;100.00;102153.34;5071270;28;20079;-75
2023/05/27 05:52:41;;;;;;;10.55;4.18;;;;;;;19.35;100.00;102159.00;5070200;28;20415;-74
2023/05/27 05:55:07;;;;;;;7.43;4.35;;;;;;;19.41;100.00;102189.78;5071399;28;20036;-74
2023/05/27 05:57:32;;;;;;;6.57;4.50;;;;;;;19.44;100.00;102212.91;5070588;28;20021;-74
2023/05/27 05:59:58;;;;;;;5.55;4.28;;;;;;;19.58;100.00;102187.53;5070169;28;20131;-75
2023/05/27 06:02:25;;;;;;;5.55;4.20;;;;;;;19.57;100.00;102163.44;5070397;28;20029;-74
2023/05/27 06:04:50;;;;;;;5.72;4.18;;;;;;;19.67;100.00;102184.66;5071728;28;20137;-75
2023/05/27 06:07:16;;;;;;;21.52;5.05;;;;;;;19.34;100.00;102152.97;5071219;28;20079;-75
2023/05/27 06:09:41;;;;;;;60.15;7.18;;;;;;;19.56;100.00;102140.28;5071655;28;20144;-75
2023/05/27 06:12:07;;;;;;;7.43;4.28;;;;;;;19.63;100.00;102183.91;5054397;28;20067;-77
2023/05/27 06:14:32;;;;;;;8.48;4.20;;;;;;;19.44;100.00;102171.59;5053972;28;20076;-76
2023/05/27 06:17:01;;;;;;;6.25;4.13;;;;;;;19.51;100.00;102194.59;5054674;28;20182;-76
2023/05/27 06:19:26;;;;;;;5.22;4.35;;;;;;;19.78;100.00;102198.13;5071154;28;20499;-75
2023/05/27 06:21:52;;;;;;;7.38;5.03;;;;;;;19.63;100.00;102170.19;5071356;28;20047;-78
2023/05/27 06:24:19;;;;;;;8.48;4.90;;;;;;;19.21;100.00;102137.88;5071788;28;20047;-77
2023/05/27 06:26:44;;;;;;;8.10;5.00;;;;;;;19.69;100.00;102193.22;5071683;28;20117;-75
2023/05/27 06:29:09;;;;;;;10.15;4.88;;;;;;;19.46;100.00;102172.41;5072274;28;20079;-76
2023/05/27 06:31:35;;;;;;;6.93;5.40;;;;;;;19.26;100.00;102139.41;5071346;28;20198;-75
2023/05/27 06:34:00;;;;;;;8.75;6.03;;;;;;;19.76;100.00;102215.38;5071611;28;20032;-75
2023/05/27 06:36:26;;;;;;;14.70;6.10;;;;;;;19.42;100.00;102155.31;5070704;28;20127;-75
2023/05/27 06:38:53;;;;;;;8.75;6.05;;;;;;;19.06;100.00;102110.78;5071419;28;20031;-75
2023/05/27 06:41:18;;;;;;;6.55;5.07;;;;;;;19.46;100.00;102203.38;5074042;28;20032;-75
2023/05/27 06:43:43;;;;;;;7.40;5.00;;;;;;;19.46;100.00;102180.16;5074619;28;20020;-75
2023/05/27 06:46:09;;;;;;;8.75;4.80;;;;;;;19.49;100.00;102208.47;5073953;28;20427;-75
2023/05/27 06:48:35;;;;;;;6.53;4.95;;;;;;;19.65;100.00;102223.44;5074437;28;20031;-74
2023/05/27 06:51:01;;;;;;;7.65;5.40;;;;;;;19.67;100.00;102242.31;5074396;28;20039;-75
2023/05/27 06:53:26;;;;;;;8.20;5.03;;;;;;;19.54;100.00;102227.22;5064884;28;20040;-75
2023/05/27 06:55:52;;;;;;;7.28;4.60;;;;;;;19.10;100.00;102176.84;5072198;28;20391;-75
2023/05/27 06:58:17;;;;;;;5.22;4.57;;;;;;;19.55;100.00;102240.09;5066148;28;20419;-76
2023/05/27 07:00:42;;;;;;;6.07;4.90;;;;;;;19.47;100.00;102267.03;5054423;28;20131;-76
2023/05/27 07:03:08;;;;;;;5.93;4.80;;;;;;;19.46;100.00;102271.34;5053697;28;20499;-75
2023/05/27 07:05:33;;;;;;;6.70;4.90;;;;;;;19.35;100.00;102224.31;5055255;28;20024;-76
2023/05/27 07:07:58;;;;;;;6.68;4.38;;;;;;;19.35;100.00;102224.31;5072691;28;20032;-74
2023/05/27 07:10:24;;;;;;;8.65;5.78;;;;;;;19.63;100.00;102289.75;5056066;28;20570;-74
2023/05/27 07:12:50;;;;;;;6.07;5.07;;;;;;;19.71;100.00;102286.97;5055769;28;20078;-73
2023/05/27 07:15:15;;;;;;;5.85;4.97;;;;;;;19.04;100.00;102188.19;5072472;28;20036;-71
2023/05/27 07:17:40;;;;;;;7.80;4.95;;;;;;;19.59;100.00;102258.94;5073325;28;20039;-70
2023/05/27 07:20:06;;;;;;;12.13;6.10;;;;;;;19.88;100.00;102246.00;5072926;28;20445;-73
2023/05/27 07:22:32;;;;;;;7.38;5.15;;;;;;;19.31;100.00;102220.13;5072784;28;20086;-72
2023/05/27 07:24:57;;;;;;;5.28;4.78;;;;;;;19.76;100.00;102290.28;5055535;28;20043;-74
2023/05/27 07:27:23;;;;;;;9.30;5.30;;;;;;;20.04;100.00;102261.88;5055470;28;20503;-72
2023/05/27 07:29:48;;;;;;;8.52;4.80;;;;;;;20.16;100.00;102266.69;5073249;28;20052;-75
2023/05/27 07:32:13;;;;;;;6.43;5.05;;;;;;;20.04;100.00;102238.66;5074395;28;20024;-74
2023/05/27 07:34:45;;;;;;;6.07;4.97;;;;;;;20.11;100.00;102266.81;5073519;28;20457;-74
2023/05/27 07:37:10;;;;;;;;;;;;;;;20.28;100.00;102285.25;5056041;28;20024;-73
2023/05/27 07:39:36;;;;;;;5.87;4.40;;;;;;;19.85;100.00;102261.59;5053631;28;19913;-73
2023/05/27 07:42:01;;;;;;;5.25;4.75;;;;;;;20.21;100.00;102263.09;5054990;28;20373;-74
2023/05/27 07:44:27;;;;;;;6.22;5.40;;;;;;;20.18;100.00;102247.66;5073150;28;20505;-74
2023/05/27 07:46:53;;;;;;;5.68;4.78;;;;;;;19.90;100.00;102200.31;5072832;28;20213;-73
2023/05/27 07:49:19;;;;;;;6.10;4.88;;;;;;;19.92;100.00;102215.78;5055368;28;20558;-72
2023/05/27 07:51:44;;;;;;;7.85;6.50;;;;;;;20.04;100.00;102252.41;5073117;28;20111;-74
2023/05/27 07:54:09;;;;;;;6.63;5.88;;;;;;;20.09;100.00;102236.75;5055339;28;20028;-72
2023/05/27 07:56:35;;;;;;;5.53;4.90;;;;;;;19.79;100.00;102233.34;5072698;28;20036;-73
2023/05/27 07:59:00;;;;;;;6.18;4.90;;;;;;;19.90;100.00;102236.47;5054824;28;20086;-74
2023/05/27 08:01:30;;;;;;;5.97;4.78;;;;;;;19.67;100.00;102190.69;5072427;28;20513;-74
2023/05/27 08:03:56;;;;;;;6.40;5.25;;;;;;;19.78;100.00;102236.84;5054847;28;20040;-73
2023/05/27 08:06:21;;;;;;;8.82;5.35;;;;;;;19.89;100.00;102250.28;5054357;28;20040;-74
2023/05/27 08:08:47;;;;;;;7.93;5.50;;;;;;;19.40;100.00;102200.97;5071720;28;20037;-74
2023/05/27 08:11:12;;;;;;;7.57;5.38;;;;;;;19.64;100.00;102259.63;5072952;28;20083;-75
2023/05/27 08:13:38;;;;;;;7.35;5.18;;;;;;;19.67;100.00;102275.03;5055242;28;20037;-74
2023/05/27 08:16:03;;;;;;;6.45;5.60;;;;;;;19.61;100.00;102247.66;5072783;28;20587;-74
2023/05/27 08:18:29;;;;;;;5.65;5.05;;;;;;;19.43;100.00;102281.72;5072332;28;20033;-74
2023/05/27 08:20:55;;;;;;;7.20;5.50;;;;;;;19.51;100.00;102238.47;5072689;28;20040;-73
2023/05/27 08:23:20;;;;;;;7.63;5.70;;;;;;;19.91;100.00;102296.72;5072582;28;20414;-72
2023/05/27 08:25:45;;;;;;;5.63;5.00;;;;;;;19.51;100.00;102250.56;5072222;28;20083;-72
2023/05/27 08:28:11;;;;;;;6.25;5.07;;;;;;;19.88;100.00;102262.38;5054306;28;20024;-73
2023/05/27 08:30:36;;;;;;;6.10;5.07;;;;;;;19.87;100.00;102290.78;5072379;28;20033;-73
2023/05/27 08:33:05;;;;;;;7.75;5.43;;;;;;;20.09;100.00;102297.03;5054691;28;20153;-73
2023/05/27 08:35:31;;;;;;;6.68;5.10;;;;;;;20.11;100.00;102302.97;5072148;28;20028;-73
2023/05/27 08:37:56;;;;;;;5.75;5.00;;;;;;;20.34;100.00;102323.81;5072642;28;20116;-73
2023/05/27 08:40:22;;;;;;;6.88;5.20;;;;;;;20.27;100.00;102296.50;5054195;28;20031;-73
2023/05/27 08:42:48;;;;;;;5.47;4.78;;;;;;;20.44;100.00;102301.97;5071990;28;20537;-72
2023/05/27 08:45:14;;;;;;;5.80;5.20;;;;;;;20.45;100.00;102301.09;5054310;28;20033;-73
2023/05/27 08:47:39;;;;;;;5.93;5.30;;;;;;;20.39;100.00;102249.59;5072374;28;20475;-73
2023/05/27 08:50:07;;;;;;;5.90;5.10;;;;;;;20.87;100.00;102292.84;5054408;28;20427;-73
2023/05/27 08:52:33;;;;;;;7.28;5.45;;;;;;;20.93;100.00;102292.63;5072231;28;20043;-71
2023/05/27 08:54:59;;;;;;;6.13;5.00;;;;;;;20.30;100.00;102180.09;5071850;28;20042;-71
2023/05/27 08:57:29;;;;;;;5.88;4.80;;;;;;;20.68;100.00;102243.47;5071548;28;20379;-70
2023/05/27 08:59:56;;;;;;;6.28;4.90;;;;;;;20.54;100.00;102166.38;5053643;28;20025;-72
2023/05/27 09:02:23;;;;;;;7.03;4.78;;;;;;;20.71;100.00;102182.16;5071524;28;20075;-72
2023/05/27 09:04:49;;;;;;;7.40;5.35;;;;;;;21.05;100.00;102201.69;5053418;28;20383;-72
2023/05/27 09:07:15;;;;;;;7.50;5.75;;;;;;;20.90;100.00;102147.91;5071698;28;20025;-73
2023/05/27 09:09:40;;;;;;;6.88;5.00;;;;;;;20.55;100.00;102087.06;5071744;28;20067;-73
2023/05/27 09:12:08;;;;;;;9.57;5.97;;;;;;;21.57;100.00;102162.63;5071136;28;20127;-73
2023/05/27 09:14:34;;;;;;;7.15;5.20;;;;;;;21.58;100.00;102160.00;5053953;28;20032;-73
2023/05/27 09:17:09;;;;;;;6.00;5.20;;;;;;;21.39;100.00;102104.63;5053675;28;20077;-73
2023/05/27 09:19:34;;;;;;;7.18;5.63;;;;;;;21.86;100.00;102107.97;5071552;28;20551;-73
2023/05/27 09:22:00;;;;;;;6.32;5.35;;;;;;;21.29;100.00;102055.88;5071373;28;20024;-73
2023/05/27 09:24:26;;;;;;;10.13;6.18;;;;;;;21.60;100.00;102058.94;5071157;28;20442;-73
2023/05/27 09:26:55;;;;;;;8.52;5.80;;;;;;;21.22;100.00;101966.44;5070885;28;20085;-73
2023/05/27 09:29:28;;;;;;;7.35;5.40;;;;;;;21.40;100.00;101984.66;5053148;28;20473;-74
2023/05/27 09:31:57;;;;;;;6.55;5.82;;;;;;;21.05;100.00;101948.16;5071518;28;20158;-73
2023/05/27 09:34:23;;;;;;;7.30;5.75;;;;;;;21.92;100.00;102001.50;5053223;28;20063;-74
2023/05/27 09:36:50;;;;;;;7.60;5.63;;;;;;;21.57;100.00;101929.56;5071290;28;20085;-73
2023/05/27 09:39:19;;;;;;;6.88;6.10;;;;;;;21.80;100.00;101933.78;5071433;28;20025;-74
2023/05/27 09:41:50;;;;;;;8.65;6.00;;;;;;;21.79;100.00;101930.34;5070829;28;20059;-73
2023/05/27 09:44:16;;;;;;;8.30;5.75;;;;;;;21.60;100.00;101924.28;5071156;28;20474;-74
2023/05/27 09:46:44;;;;;;;6.85;5.72;;;;;;;22.09;100.00;101917.84;5053220;28;20115;-73
2023/05/27 09:49:11;;;;;;;6.85;5.32;;;;;;;22.13;100.00;101914.19;5069007;28;20036;-73
2023/05/27 09:51:45;;;;;;;6.93;5.03;;;;;;;22.09;100.00;101892.78;5070420;28;20073;-73
2023/05/27 09:54:17;;;;;;;7.20;5.88;;;;;;;22.04;100.00;101832.56;5052904;28;20119;-73
2023/05/27 09:56:45;;;;;;;8.68;6.03;;;;;;;22.14;100.00;101869.25;5069683;28;20036;-73
2023/05/27 09:59:11;;;;;;;7.40;5.75;;;;;;;21.49;100.00;101758.22;5069694;28;20029;-72
2023/05/27 10:01:38;;;;;;;6.75;6.00;;;;;;;22.17;100.00;101817.25;5070137;28;20041;-74
2023/05/27 10:04:04;;;;;;;8.63;5.53;;;;;;;22.36;100.00;101837.06;5069521;28;20479;-70
2023/05/27 10:06:32;;;;;;;7.72;5.97;;;;;;;22.16;100.00;101766.34;5069915;28;20025;-70
2023/05/27 10:09:01;;;;;;;9.65;5.78;;;;;;;22.57;100.00;101780.78;5070069;28;20020;-71
2023/05/27 10:11:31;;;;;;;6.55;5.70;;;;;;;22.59;100.00;101775.53;5051980;28;20129;-70
2023/05/27 10:13:56;;;;;;;9.00;5.72;;;;;;;22.37;100.00;101776.53;5071142;28;20119;-71
2023/05/27 10:16:26;;;;;;;9.50;5.75;;;;;;;22.33;100.00;101749.09;5055733;28;20163;-71
2023/05/27 10:18:56;;;;;;;8.57;5.43;;;;;;;22.83;100.00;101769.97;5073602;28;20491;-72
2023/05/27 10:21:27;;;;;;;8.20;5.77;;;;;;;22.95;100.00;101740.81;5072545;28;20025;-72
2023/05/27 10:24:02;;;;;;;7.25;6.25;;;;;;;23.27;100.00;101765.94;5074452;28;20267;-73
2023/05/27 10:26:38;;;;;;;6.03;5.53;;;;;;;23.46;100.00;101703.53;5056385;28;20059;-70
2023/05/27 10:29:08;;;;;;;6.60;6.00;;;;;;;23.80;100.00;101703.38;5073668;28;20037;-73
2023/05/27 10:31:33;;;;;;;7.00;5.47;;;;;;;23.66;100.00;101702.44;5073985;28;20052;-75
2023/05/27 10:33:58;;;;;;;6.25;5.60;;;;;;;23.06;100.00;101636.44;5073909;28;20032;-71
2023/05/27 10:36:31;;;;;;;11.35;5.88;;;;;;;23.31;100.00;101626.47;5066958;28;20082;-73
2023/05/27 10:38:59;;;;;;;8.85;5.75;;;;;;;23.37;100.00;101602.75;5058083;28;20471;-72
2023/05/27 10:41:25;;;;;;;6.30;5.60;;;;;;;23.04;100.00;101581.19;5069545;28;20116;-73
2023/05/27 10:43:58;;;;;;;6.97;5.13;;;;;;;23.81;100.00;101623.66;5053182;28;20040;-72
2023/05/27 10:46:24;;;;;;;5.82;5.28;;;;;;;23.18;100.00;101525.00;5068018;28;20033;-72
2023/05/27 10:48:49;;;;;;;5.70;4.90;;;;;;;23.20;100.00;101520.56;5062136;28;20033;-72
2023/05/27 10:51:15;;;;;;;8.20;5.35;;;;;;;23.52;100.00;101564.69;5072985;28;20043;-74
2023/05/27 10:53:41;;;;;;;5.75;4.97;;;;;;;23.34;100.00;101537.16;5070577;28;20037;-72
2023/05/27 10:56:08;;;;;;;7.05;5.13;;;;;;;22.73;100.00;101456.63;5064986;28;20040;-73
2023/05/27 10:58:35;;;;;;;5.18;4.63;;;;;;;23.04;100.00;101500.72;5073516;28;20048;-72
2023/05/27 11:01:10;;;;;;;4.97;4.57;;;;;;;22.65;100.00;101418.16;5073893;28;20029;-72
2023/05/27 11:03:42;;;;;;;6.20;5.15;;;;;;;22.77;100.00;101414.03;5054310;28;20036;-72
2023/05/27 11:06:07;;;;;;;6.07;5.30;;;;;;;23.17;100.00;101429.91;5074026;28;20056;-72
2023/05/27 11:08:34;;;;;;;8.45;5.55;;;;;;;23.23;100.00;101436.50;5073203;28;20492;-72
2023/05/27 11:11:03;;;;;;;6.68;4.97;;;;;;;23.42;100.00;101424.16;5073696;28;20511;-70
2023/05/27 11:13:35;;;;;;;6.68;5.03;;;;;;;24.01;100.00;101416.25;5055656;28;20055;-72